sensor_id;sensor_type;location;lat;lon;timestamp;pressure;altitude;pressure_sealevel;temperature;humidity
57248;BME280;55809;46.618;10.764;2023-04-25T00:01:41;92259.53;;;8.44;47.45
57248;BME280;55809;46.618;10.764;2023-04-25T00:04:08;92253.78;;;8.42;47.85
57248;BME280;55809;46.618;10.764;2023-04-25T00:06:37;92257.59;;;8.44;47.71
57248;BME280;55809;46.618;10.764;2023-04-25T00:09:05;92235.88;;;8.25;47.60
57248;BME280;55809;46.618;10.764;2023-04-25T00:11:34;92269.44;;;8.51;47.46
57248;BME280;55809;46.618;10.764;2023-04-25T00:14:02;92268.38;;;8.41;48.13
57248;BME280;55809;46.618;10.764;2023-04-25T00:16:29;92258.53;;;8.27;48.07
57248;BME280;55809;46.618;10.764;2023-04-25T00:19:02;92218.13;;;7.93;47.31
57248;BME280;55809;46.618;10.764;2023-04-25T00:21:29;92250.69;;;8.02;47.46
57248;BME280;55809;46.618;10.764;2023-04-25T00:23:56;92264.16;;;7.98;48.24
57248;BME280;55809;46.618;10.764;2023-04-25T00:26:23;92268.41;;;7.96;47.90
57248;BME280;55809;46.618;10.764;2023-04-25T00:28:50;92219.16;;;7.65;47.93
57248;BME280;55809;46.618;10.764;2023-04-25T00:31:17;92262.78;;;7.83;48.20
57248;BME280;55809;46.618;10.764;2023-04-25T00:33:44;92262.06;;;7.75;48.08
57248;BME280;55809;46.618;10.764;2023-04-25T00:36:12;92258.97;;;7.77;48.51
57248;BME280;55809;46.618;10.764;2023-04-25T00:38:40;92232.16;;;7.73;48.79
57248;BME280;55809;46.618;10.764;2023-04-25T00:41:07;92229.78;;;7.79;49.61
57248;BME280;55809;46.618;10.764;2023-04-25T00:43:36;92218.34;;;7.71;50.00
57248;BME280;55809;46.618;10.764;2023-04-25T00:46:03;92242.00;;;7.87;49.72
57248;BME280;55809;46.618;10.764;2023-04-25T00:48:30;92215.38;;;7.59;48.91
57248;BME280;55809;46.618;10.764;2023-04-25T00:50:58;92238.28;;;7.74;48.35
57248;BME280;55809;46.618;10.764;2023-04-25T00:53:28;92251.69;;;7.78;49.69
57248;BME280;55809;46.618;10.764;2023-04-25T00:55:57;92250.88;;;7.81;48.66
57248;BME280;55809;46.618;10.764;2023-04-25T00:58:25;92242.91;;;7.70;49.36
57248;BME280;55809;46.618;10.764;2023-04-25T01:00:52;92249.09;;;7.67;48.77
57248;BME280;55809;46.618;10.764;2023-04-25T01:03:19;92248.31;;;7.66;49.42
57248;BME280;55809;46.618;10.764;2023-04-25T01:05:47;92210.13;;;7.44;49.56
57248;BME280;55809;46.618;10.764;2023-04-25T01:08:14;92252.19;;;7.62;48.19
57248;BME280;55809;46.618;10.764;2023-04-25T01:10:42;92246.13;;;7.54;48.70
57248;BME280;55809;46.618;10.764;2023-04-25T01:13:09;92244.22;;;7.51;48.02
57248;BME280;55809;46.618;10.764;2023-04-25T01:15:36;92237.75;;;7.45;49.40
57248;BME280;55809;46.618;10.764;2023-04-25T01:18:04;92222.00;;;7.43;49.79
57248;BME280;55809;46.618;10.764;2023-04-25T01:20:32;92240.34;;;7.56;49.49
57248;BME280;55809;46.618;10.764;2023-04-25T01:23:02;92235.34;;;7.58;49.69
57248;BME280;55809;46.618;10.764;2023-04-25T01:25:30;92232.63;;;7.61;49.34
57248;BME280;55809;46.618;10.764;2023-04-25T01:27:57;92238.03;;;7.58;49.46
57248;BME280;55809;46.618;10.764;2023-04-25T01:30:26;92228.91;;;7.48;49.19
57248;BME280;55809;46.618;10.764;2023-04-25T01:32:55;92195.31;;;7.25;49.72
57248;BME280;55809;46.618;10.764;2023-04-25T01:35:22;92238.44;;;7.52;48.11
57248;BME280;55809;46.618;10.764;2023-04-25T01:37:51;92172.50;;;6.99;47.86
57248;BME280;55809;46.618;10.764;2023-04-25T01:40:20;92194.63;;;7.11;48.32
57248;BME280;55809;46.618;10.764;2023-04-25T01:42:48;92248.88;;;7.47;48.37
57248;BME280;55809;46.618;10.764;2023-04-25T01:45:15;92245.34;;;7.57;48.00
57248;BME280;55809;46.618;10.764;2023-04-25T01:47:42;92223.97;;;7.39;48.24
57248;BME280;55809;46.618;10.764;2023-04-25T01:50:12;92236.91;;;7.55;48.59
57248;BME280;55809;46.618;10.764;2023-04-25T01:52:39;92232.28;;;7.56;48.92
57248;BME280;55809;46.618;10.764;2023-04-25T01:55:07;92232.28;;;7.56;49.06
57248;BME280;55809;46.618;10.764;2023-04-25T01:57:36;92236.88;;;7.59;49.17
57248;BME280;55809;46.618;10.764;2023-04-25T02:00:04;92231.50;;;7.59;48.42
57248;BME280;55809;46.618;10.764;2023-04-25T02:02:33;92228.09;;;7.55;48.92
57248;BME280;55809;46.618;10.764;2023-04-25T02:05:00;92230.38;;;7.52;48.19
57248;BME280;55809;46.618;10.764;2023-04-25T02:07:27;92189.56;;;7.23;48.89
57248;BME280;55809;46.618;10.764;2023-04-25T02:09:54;92227.31;;;7.54;48.69
57248;BME280;55809;46.618;10.764;2023-04-25T02:12:21;92220.09;;;7.47;47.81
57248;BME280;55809;46.618;10.764;2023-04-25T02:14:49;92216.75;;;7.29;48.14
57248;BME280;55809;46.618;10.764;2023-04-25T02:17:16;92228.59;;;7.39;48.52
57248;BME280;55809;46.618;10.764;2023-04-25T02:19:43;92227.06;;;7.38;49.21
57248;BME280;55809;46.618;10.764;2023-04-25T02:22:10;92229.72;;;7.41;49.53
57248;BME280;55809;46.618;10.764;2023-04-25T02:24:37;92216.31;;;7.38;50.55
57248;BME280;55809;46.618;10.764;2023-04-25T02:27:04;92214.81;;;7.33;49.59
57248;BME280;55809;46.618;10.764;2023-04-25T02:29:31;92213.41;;;7.18;49.20
57248;BME280;55809;46.618;10.764;2023-04-25T02:32:00;92216.50;;;7.13;49.36
57248;BME280;55809;46.618;10.764;2023-04-25T02:34:27;92211.09;;;7.16;49.99
57248;BME280;55809;46.618;10.764;2023-04-25T02:36:53;92208.75;;;7.25;50.33
57248;BME280;55809;46.618;10.764;2023-04-25T02:39:21;92198.78;;;7.22;51.18
57248;BME280;55809;46.618;10.764;2023-04-25T02:41:51;92188.84;;;7.19;51.13
57248;BME280;55809;46.618;10.764;2023-04-25T02:44:18;92202.19;;;7.30;50.44
57248;BME280;55809;46.618;10.764;2023-04-25T02:46:45;92183.41;;;7.26;49.48
57248;BME280;55809;46.618;10.764;2023-04-25T02:49:14;92208.97;;;7.45;50.36
57248;BME280;55809;46.618;10.764;2023-04-25T02:51:41;92170.41;;;7.25;49.58
57248;BME280;55809;46.618;10.764;2023-04-25T02:54:08;92211.63;;;7.49;49.10
57248;BME280;55809;46.618;10.764;2023-04-25T02:56:35;92216.25;;;7.45;49.37
57248;BME280;55809;46.618;10.764;2023-04-25T02:59:02;92218.56;;;7.43;50.37
57248;BME280;55809;46.618;10.764;2023-04-25T03:01:29;92216.28;;;7.41;49.65
57248;BME280;55809;46.618;10.764;2023-04-25T03:03:56;92208.34;;;7.31;50.13
57248;BME280;55809;46.618;10.764;2023-04-25T03:06:24;92214.88;;;7.26;50.20
57248;BME280;55809;46.618;10.764;2023-04-25T03:08:51;92150.72;;;6.90;51.11
57248;BME280;55809;46.618;10.764;2023-04-25T03:11:18;92169.34;;;7.12;50.57
57248;BME280;55809;46.618;10.764;2023-04-25T03:13:46;92198.34;;;7.31;50.85
57248;BME280;55809;46.618;10.764;2023-04-25T03:16:13;92147.63;;;6.95;51.15
57248;BME280;55809;46.618;10.764;2023-04-25T03:18:41;92196.50;;;7.21;51.55
57248;BME280;55809;46.618;10.764;2023-04-25T03:21:07;92143.00;;;6.96;52.27
57248;BME280;55809;46.618;10.764;2023-04-25T03:23:36;92197.50;;;7.41;53.47
57248;BME280;55809;46.618;10.764;2023-04-25T03:26:03;92197.13;;;7.39;53.65
57248;BME280;55809;46.618;10.764;2023-04-25T03:28:30;92198.63;;;7.44;53.14
57248;BME280;55809;46.618;10.764;2023-04-25T03:30:57;92187.56;;;7.38;53.78
57248;BME280;55809;46.618;10.764;2023-04-25T03:33:24;92147.97;;;7.01;54.58
57248;BME280;55809;46.618;10.764;2023-04-25T03:35:51;92196.44;;;7.32;54.12
57248;BME280;55809;46.618;10.764;2023-04-25T03:38:18;92190.28;;;7.31;54.67
57248;BME280;55809;46.618;10.764;2023-04-25T03:40:47;92178.41;;;7.28;53.69
57248;BME280;55809;46.618;10.764;2023-04-25T03:43:14;92195.25;;;7.33;53.32
57248;BME280;55809;46.618;10.764;2023-04-25T03:45:41;92184.13;;;7.34;54.69
57248;BME280;55809;46.618;10.764;2023-04-25T03:48:08;92139.97;;;6.90;54.71
57248;BME280;55809;46.618;10.764;2023-04-25T03:50:35;92190.28;;;7.31;54.38
57248;BME280;55809;46.618;10.764;2023-04-25T03:53:02;92189.63;;;7.16;56.15
57248;BME280;55809;46.618;10.764;2023-04-25T03:55:30;92169.50;;;6.87;56.64
57248;BME280;55809;46.618;10.764;2023-04-25T03:57:59;92194.25;;;7.12;57.53
57248;BME280;55809;46.618;10.764;2023-04-25T04:00:26;92195.53;;;6.93;58.14
57248;BME280;55809;46.618;10.764;2023-04-25T04:02:53;92152.81;;;6.61;57.81
57248;BME280;55809;46.618;10.764;2023-04-25T04:05:19;92191.28;;;6.99;57.80
57248;BME280;55809;46.618;10.764;2023-04-25T04:07:47;92190.50;;;7.02;58.12
57248;BME280;55809;46.618;10.764;2023-04-25T04:10:14;92176.81;;;6.86;55.99
57248;BME280;55809;46.618;10.764;2023-04-25T04:12:41;92188.75;;;6.78;55.67
57248;BME280;55809;46.618;10.764;2023-04-25T04:15:12;92163.94;;;6.60;56.52
57248;BME280;55809;46.618;10.764;2023-04-25T04:17:39;92184.88;;;6.82;58.27
57248;BME280;55809;46.618;10.764;2023-04-25T04:20:07;92166.94;;;6.72;58.20
57248;BME280;55809;46.618;10.764;2023-04-25T04:22:34;92196.66;;;6.99;57.01
57248;BME280;55809;46.618;10.764;2023-04-25T04:25:01;92200.50;;;6.98;58.93
57248;BME280;55809;46.618;10.764;2023-04-25T04:27:32;92194.88;;;6.75;61.72
57248;BME280;55809;46.618;10.764;2023-04-25T04:29:59;92193.81;;;6.54;62.20
57248;BME280;55809;46.618;10.764;2023-04-25T04:32:30;92185.84;;;6.40;62.69
57248;BME280;55809;46.618;10.764;2023-04-25T04:34:59;92196.19;;;6.45;62.97
57248;BME280;55809;46.618;10.764;2023-04-25T04:37:26;92179.75;;;6.36;62.86
57248;BME280;55809;46.618;10.764;2023-04-25T04:39:53;92194.59;;;6.55;62.71
57248;BME280;55809;46.618;10.764;2023-04-25T04:42:20;92193.47;;;6.52;62.83
57248;BME280;55809;46.618;10.764;2023-04-25T04:44:49;92151.53;;;6.06;61.80
57248;BME280;55809;46.618;10.764;2023-04-25T04:47:17;92200.78;;;6.38;61.89
57248;BME280;55809;46.618;10.764;2023-04-25T04:49:47;92200.00;;;6.44;62.16
57248;BME280;55809;46.618;10.764;2023-04-25T04:52:14;92203.41;;;6.55;61.12
57248;BME280;55809;46.618;10.764;2023-04-25T04:54:41;92204.88;;;6.64;59.91
57248;BME280;55809;46.618;10.764;2023-04-25T04:57:08;92205.34;;;6.55;59.20
57248;BME280;55809;46.618;10.764;2023-04-25T04:59:35;92182.34;;;6.50;59.06
57248;BME280;55809;46.618;10.764;2023-04-25T05:02:02;92191.50;;;6.60;59.04
57248;BME280;55809;46.618;10.764;2023-04-25T05:04:29;92194.97;;;6.53;58.75
57248;BME280;55809;46.618;10.764;2023-04-25T05:07:00;92144.97;;;6.18;59.62
57248;BME280;55809;46.618;10.764;2023-04-25T05:09:27;92180.91;;;6.39;58.21
57248;BME280;55809;46.618;10.764;2023-04-25T05:11:53;92183.97;;;6.33;59.11
57248;BME280;55809;46.618;10.764;2023-04-25T05:14:20;92135.84;;;6.05;59.15
57248;BME280;55809;46.618;10.764;2023-04-25T05:16:48;92143.44;;;6.21;59.49
57248;BME280;55809;46.618;10.764;2023-04-25T05:19:16;92173.22;;;6.41;59.39
57248;BME280;55809;46.618;10.764;2023-04-25T05:21:43;92130.78;;;6.25;59.29
57248;BME280;55809;46.618;10.764;2023-04-25T05:24:12;92124.50;;;6.56;58.68
57248;BME280;55809;46.618;10.764;2023-04-25T05:26:39;92169.28;;;7.19;58.49
57248;BME280;55809;46.618;10.764;2023-04-25T05:29:06;92164.06;;;7.49;55.24
57248;BME280;55809;46.618;10.764;2023-04-25T05:31:33;92166.19;;;7.69;55.39
57248;BME280;55809;46.618;10.764;2023-04-25T05:34:00;92155.91;;;7.98;55.24
57248;BME280;55809;46.618;10.764;2023-04-25T05:36:27;92114.72;;;8.08;53.12
57248;BME280;55809;46.618;10.764;2023-04-25T05:38:56;92148.84;;;8.76;52.20
57248;BME280;55809;46.618;10.764;2023-04-25T05:41:24;92102.44;;;8.68;51.10
57248;BME280;55809;46.618;10.764;2023-04-25T05:43:51;92152.31;;;9.27;50.87
57248;BME280;55809;46.618;10.764;2023-04-25T05:46:18;92112.28;;;9.29;51.16
57248;BME280;55809;46.618;10.764;2023-04-25T05:48:46;92117.47;;;9.63;47.89
57248;BME280;55809;46.618;10.764;2023-04-25T05:51:17;92100.22;;;9.61;47.49
57248;BME280;55809;46.618;10.764;2023-04-25T05:53:49;92101.84;;;9.98;47.66
57248;BME280;55809;46.618;10.764;2023-04-25T05:56:35;92114.44;;;10.45;47.00
57248;BME280;55809;46.618;10.764;2023-04-25T05:59:03;92121.81;;;10.97;46.24
57248;BME280;55809;46.618;10.764;2023-04-25T06:01:36;92103.84;;;10.54;45.67
57248;BME280;55809;46.618;10.764;2023-04-25T06:04:08;92044.31;;;10.25;45.38
57248;BME280;55809;46.618;10.764;2023-04-25T06:06:57;92118.28;;;11.00;46.09
57248;BME280;55809;46.618;10.764;2023-04-25T06:09:26;92014.25;;;10.43;45.77
57248;BME280;55809;46.618;10.764;2023-04-25T06:12:22;92113.88;;;11.55;45.21
57248;BME280;55809;46.618;10.764;2023-04-25T06:15:20;92005.19;;;10.69;45.38
57248;BME280;55809;46.618;10.764;2023-04-25T06:17:47;91999.28;;;10.91;45.38
57248;BME280;55809;46.618;10.764;2023-04-25T06:20:23;92036.47;;;11.48;45.72
57248;BME280;55809;46.618;10.764;2023-04-25T06:23:06;92080.16;;;12.05;44.96
57248;BME280;55809;46.618;10.764;2023-04-25T06:25:35;92052.81;;;12.16;43.73
57248;BME280;55809;46.618;10.764;2023-04-25T06:28:47;92099.00;;;12.63;41.39
57248;BME280;55809;46.618;10.764;2023-04-25T06:31:19;92097.94;;;12.48;42.35
57248;BME280;55809;46.618;10.764;2023-04-25T06:34:07;92086.31;;;12.35;41.60
57248;BME280;55809;46.618;10.764;2023-04-25T06:36:44;92051.44;;;12.37;41.27
57248;BME280;55809;46.618;10.764;2023-04-25T06:39:30;91990.16;;;11.76;42.42
57248;BME280;55809;46.618;10.764;2023-04-25T06:42:12;91968.41;;;11.37;42.67
57248;BME280;55809;46.618;10.764;2023-04-25T06:45:40;91988.59;;;11.91;42.52
57248;BME280;55809;46.618;10.764;2023-04-25T06:48:21;92008.38;;;12.42;43.08
57248;BME280;55809;46.618;10.764;2023-04-25T06:50:50;92070.88;;;13.25;43.59
57248;BME280;55809;46.618;10.764;2023-04-25T06:53:18;92006.47;;;13.29;42.61
57248;BME280;55809;46.618;10.764;2023-04-25T06:55:45;92019.53;;;13.56;41.28
57248;BME280;55809;46.618;10.764;2023-04-25T06:58:24;92099.25;;;13.93;39.42
57248;BME280;55809;46.618;10.764;2023-04-25T07:01:12;92036.09;;;13.36;41.98
57248;BME280;55809;46.618;10.764;2023-04-25T07:03:43;91986.00;;;13.15;41.59
57248;BME280;55809;46.618;10.764;2023-04-25T07:06:12;92010.94;;;13.57;40.83
57248;BME280;55809;46.618;10.764;2023-04-25T07:08:40;92055.47;;;14.26;40.36
57248;BME280;55809;46.618;10.764;2023-04-25T07:11:26;92058.63;;;14.24;40.55
57248;BME280;55809;46.618;10.764;2023-04-25T07:14:04;91977.41;;;13.64;41.59
57248;BME280;55809;46.618;10.764;2023-04-25T07:16:57;91983.53;;;13.99;38.73
57248;BME280;55809;46.618;10.764;2023-04-25T07:19:24;91986.00;;;14.38;38.41
57248;BME280;55809;46.618;10.764;2023-04-25T07:21:55;91972.03;;;14.48;39.64
57248;BME280;55809;46.618;10.764;2023-04-25T07:24:24;91997.59;;;14.07;39.87
57248;BME280;55809;46.618;10.764;2023-04-25T07:26:58;92056.13;;;14.92;38.44
57248;BME280;55809;46.618;10.764;2023-04-25T07:29:35;91992.44;;;14.53;38.46
57248;BME280;55809;46.618;10.764;2023-04-25T07:32:05;91986.25;;;13.99;38.48
57248;BME280;55809;46.618;10.764;2023-04-25T07:34:33;91980.50;;;13.97;38.55
57248;BME280;55809;46.618;10.764;2023-04-25T07:37:02;92083.13;;;14.56;38.52
57248;BME280;55809;46.618;10.764;2023-04-25T07:39:29;92071.31;;;14.71;38.58
57248;BME280;55809;46.618;10.764;2023-04-25T07:41:56;92073.63;;;13.94;39.64
57248;BME280;55809;46.618;10.764;2023-04-25T07:44:24;92069.91;;;13.79;40.77
57248;BME280;55809;46.618;10.764;2023-04-25T07:46:51;92060.75;;;14.07;41.14
57248;BME280;55809;46.618;10.764;2023-04-25T07:49:19;92064.38;;;14.26;39.94
57248;BME280;55809;46.618;10.764;2023-04-25T07:51:46;92039.59;;;14.68;39.58
57248;BME280;55809;46.618;10.764;2023-04-25T07:54:14;92055.03;;;14.81;39.65
57248;BME280;55809;46.618;10.764;2023-04-25T07:56:41;92048.53;;;14.25;39.74
57248;BME280;55809;46.618;10.764;2023-04-25T07:59:08;92028.50;;;13.66;39.81
57248;BME280;55809;46.618;10.764;2023-04-25T08:01:36;92031.72;;;14.17;40.28
57248;BME280;55809;46.618;10.764;2023-04-25T08:04:03;92045.16;;;15.05;39.12
57248;BME280;55809;46.618;10.764;2023-04-25T08:06:31;92015.06;;;14.81;38.36
57248;BME280;55809;46.618;10.764;2023-04-25T08:08:58;92029.91;;;14.98;36.35
57248;BME280;55809;46.618;10.764;2023-04-25T08:11:26;92020.97;;;14.89;36.17
57248;BME280;55809;46.618;10.764;2023-04-25T08:13:53;92031.16;;;15.84;36.10
57248;BME280;55809;46.618;10.764;2023-04-25T08:16:20;92027.06;;;16.16;35.14
57248;BME280;55809;46.618;10.764;2023-04-25T08:18:47;92021.09;;;16.45;34.45
57248;BME280;55809;46.618;10.764;2023-04-25T08:21:14;92026.75;;;16.05;36.85
57248;BME280;55809;46.618;10.764;2023-04-25T08:23:42;92020.66;;;16.37;35.36
57248;BME280;55809;46.618;10.764;2023-04-25T08:26:09;92012.38;;;16.23;34.79
57248;BME280;55809;46.618;10.764;2023-04-25T08:28:36;92006.94;;;16.23;36.51
57248;BME280;55809;46.618;10.764;2023-04-25T08:31:03;92015.56;;;16.82;34.80
57248;BME280;55809;46.618;10.764;2023-04-25T08:33:30;92015.56;;;16.82;34.80
57248;BME280;55809;46.618;10.764;2023-04-25T08:35:58;91986.16;;;17.67;31.88
57248;BME280;55809;46.618;10.764;2023-04-25T08:38:25;91997.59;;;17.32;33.02
57248;BME280;55809;46.618;10.764;2023-04-25T08:40:54;92004.78;;;17.69;31.84
57248;BME280;55809;46.618;10.764;2023-04-25T08:43:24;91975.03;;;17.95;31.63
57248;BME280;55809;46.618;10.764;2023-04-25T08:45:59;91996.94;;;18.54;30.96
57248;BME280;55809;46.618;10.764;2023-04-25T08:48:27;91996.16;;;19.13;29.39
57248;BME280;55809;46.618;10.764;2023-04-25T08:50:56;91994.91;;;19.49;29.70
57248;BME280;55809;46.618;10.764;2023-04-25T08:53:26;91925.94;;;18.89;29.98
57248;BME280;55809;46.618;10.764;2023-04-25T08:56:00;91985.03;;;19.37;31.30
57248;BME280;55809;46.618;10.764;2023-04-25T08:58:50;91991.28;;;18.13;33.85
57248;BME280;55809;46.618;10.764;2023-04-25T09:01:32;91977.91;;;18.15;31.54
57248;BME280;55809;46.618;10.764;2023-04-25T09:04:04;91965.94;;;18.42;32.75
57248;BME280;55809;46.618;10.764;2023-04-25T09:06:34;91971.78;;;19.15;30.28
57248;BME280;55809;46.618;10.764;2023-04-25T09:09:04;91944.38;;;19.09;30.46
57248;BME280;55809;46.618;10.764;2023-04-25T09:11:36;64767.38;;;-145.41;100.00
57248;BME280;55809;46.618;10.764;2023-04-25T09:14:13;91944.38;;;19.09;30.46
57248;BME280;55809;46.618;10.764;2023-04-25T09:16:59;91979.69;;;20.56;29.34
57248;BME280;55809;46.618;10.764;2023-04-25T09:19:28;91979.69;;;20.56;29.34
57248;BME280;55809;46.618;10.764;2023-04-25T09:21:57;91979.69;;;20.56;29.34
57248;BME280;55809;46.618;10.764;2023-04-25T09:24:31;91943.78;;;21.28;25.60
57248;BME280;55809;46.618;10.764;2023-04-25T09:26:59;91954.44;;;21.58;28.00
57248;BME280;55809;46.618;10.764;2023-04-25T09:29:31;91954.78;;;20.59;26.50
57248;BME280;55809;46.618;10.764;2023-04-25T09:32:13;91969.59;;;19.95;26.64
57248;BME280;55809;46.618;10.764;2023-04-25T09:34:42;91979.34;;;19.61;25.37
57248;BME280;55809;46.618;10.764;2023-04-25T09:37:09;91943.78;;;18.55;25.91
57248;BME280;55809;46.618;10.764;2023-04-25T09:39:42;91985.53;;;18.85;26.07
57248;BME280;55809;46.618;10.764;2023-04-25T09:42:15;91953.88;;;19.14;25.12
57248;BME280;55809;46.618;10.764;2023-04-25T09:44:44;91907.00;;;19.41;25.83
57248;BME280;55809;46.618;10.764;2023-04-25T09:47:12;91973.22;;;20.59;24.73
57248;BME280;55809;46.618;10.764;2023-04-25T09:49:40;91974.22;;;20.35;24.25
57248;BME280;55809;46.618;10.764;2023-04-25T09:52:12;91980.22;;;20.34;23.73
57248;BME280;55809;46.618;10.764;2023-04-25T09:54:40;91928.09;;;20.02;22.96
57248;BME280;55809;46.618;10.764;2023-04-25T09:57:10;91944.75;;;20.25;22.94
57248;BME280;55809;46.618;10.764;2023-04-25T09:59:43;91947.94;;;20.23;23.15
57248;BME280;55809;46.618;10.764;2023-04-25T10:02:11;91969.19;;;19.82;25.54
57248;BME280;55809;46.618;10.764;2023-04-25T10:04:39;91964.53;;;19.88;24.06
57248;BME280;55809;46.618;10.764;2023-04-25T10:07:08;91944.75;;;19.78;24.18
57248;BME280;55809;46.618;10.764;2023-04-25T10:09:38;91964.38;;;19.56;24.09
57248;BME280;55809;46.618;10.764;2023-04-25T10:12:08;91969.50;;;20.10;24.25
57248;BME280;55809;46.618;10.764;2023-04-25T10:14:36;91960.16;;;19.76;23.74
57248;BME280;55809;46.618;10.764;2023-04-25T10:17:08;91964.84;;;19.34;24.85
57248;BME280;55809;46.618;10.764;2023-04-25T10:19:37;91968.88;;;20.00;24.58
57248;BME280;55809;46.618;10.764;2023-04-25T10:22:11;91960.97;;;20.54;22.90
57248;BME280;55809;46.618;10.764;2023-04-25T10:24:39;91930.00;;;20.48;22.58
57248;BME280;55809;46.618;10.764;2023-04-25T10:27:08;91938.72;;;20.78;23.46
57248;BME280;55809;46.618;10.764;2023-04-25T10:29:35;91938.75;;;21.21;22.69
57248;BME280;55809;46.618;10.764;2023-04-25T10:32:02;91941.06;;;21.34;21.95
57248;BME280;55809;46.618;10.764;2023-04-25T10:34:42;91945.50;;;21.63;23.01
57248;BME280;55809;46.618;10.764;2023-04-25T10:37:12;91944.78;;;21.74;22.59
57248;BME280;55809;46.618;10.764;2023-04-25T10:39:41;91945.56;;;21.31;21.94
57248;BME280;55809;46.618;10.764;2023-04-25T10:42:09;91943.44;;;21.52;22.51
57248;BME280;55809;46.618;10.764;2023-04-25T10:44:37;91934.78;;;21.71;21.89
57248;BME280;55809;46.618;10.764;2023-04-25T10:47:07;91910.75;;;21.49;21.58
57248;BME280;55809;46.618;10.764;2023-04-25T10:49:36;91931.44;;;21.50;21.84
57248;BME280;55809;46.618;10.764;2023-04-25T10:52:25;91932.81;;;21.77;21.75
57248;BME280;55809;46.618;10.764;2023-04-25T10:54:54;91931.56;;;21.84;22.27
57248;BME280;55809;46.618;10.764;2023-04-25T10:57:39;91926.47;;;21.11;22.45
57248;BME280;55809;46.618;10.764;2023-04-25T11:00:12;91868.97;;;20.22;22.51
57248;BME280;55809;46.618;10.764;2023-04-25T11:02:43;91915.47;;;20.10;23.02
57248;BME280;55809;46.618;10.764;2023-04-25T11:05:20;91914.09;;;19.33;23.69
57248;BME280;55809;46.618;10.764;2023-04-25T11:08:06;91917.47;;;18.87;24.58
57248;BME280;55809;46.618;10.764;2023-04-25T11:10:40;91863.94;;;18.16;24.07
57248;BME280;55809;46.618;10.764;2023-04-25T11:13:11;91919.09;;;18.79;24.19
57248;BME280;55809;46.618;10.764;2023-04-25T11:15:38;91917.03;;;19.09;23.22
57248;BME280;55809;46.618;10.764;2023-04-25T11:18:05;91906.91;;;19.36;23.63
57248;BME280;55809;46.618;10.764;2023-04-25T11:20:32;91896.06;;;19.88;23.78
57248;BME280;55809;46.618;10.764;2023-04-25T11:22:59;91859.53;;;19.71;22.32
57248;BME280;55809;46.618;10.764;2023-04-25T11:25:33;91911.56;;;19.71;22.78
57248;BME280;55809;46.618;10.764;2023-04-25T11:28:04;91890.63;;;19.06;23.92
57248;BME280;55809;46.618;10.764;2023-04-25T11:30:31;91917.03;;;18.44;24.48
57248;BME280;55809;46.618;10.764;2023-04-25T11:33:01;91932.09;;;17.56;25.66
57248;BME280;55809;46.618;10.764;2023-04-25T11:35:29;91952.44;;;17.07;25.92
57248;BME280;55809;46.618;10.764;2023-04-25T11:38:01;91950.03;;;16.76;26.72
57248;BME280;55809;46.618;10.764;2023-04-25T11:40:41;91946.59;;;16.57;27.43
57248;BME280;55809;46.618;10.764;2023-04-25T11:43:16;91955.94;;;16.32;26.21
57248;BME280;55809;46.618;10.764;2023-04-25T11:45:46;91944.31;;;16.13;27.00
57248;BME280;55809;46.618;10.764;2023-04-25T11:48:15;91943.28;;;15.92;27.17
57248;BME280;55809;46.618;10.764;2023-04-25T11:50:48;91841.47;;;15.47;27.20
57248;BME280;55809;46.618;10.764;2023-04-25T11:53:20;91851.06;;;15.94;27.62
57248;BME280;55809;46.618;10.764;2023-04-25T11:56:10;91835.50;;;16.28;27.36
57248;BME280;55809;46.618;10.764;2023-04-25T11:59:00;91938.19;;;17.13;27.44
57248;BME280;55809;46.618;10.764;2023-04-25T12:01:48;91899.00;;;17.01;26.16
57248;BME280;55809;46.618;10.764;2023-04-25T12:04:32;91934.56;;;17.30;25.94
57248;BME280;55809;46.618;10.764;2023-04-25T12:07:03;91919.78;;;17.22;26.62
57248;BME280;55809;46.618;10.764;2023-04-25T12:09:31;91883.47;;;16.92;26.68
57248;BME280;55809;46.618;10.764;2023-04-25T12:12:02;91947.28;;;17.33;25.90
57248;BME280;55809;46.618;10.764;2023-04-25T12:14:30;91939.72;;;17.04;26.79
57248;BME280;55809;46.618;10.764;2023-04-25T12:17:04;91987.13;;;16.64;26.64
57248;BME280;55809;46.618;10.764;2023-04-25T12:19:50;92000.94;;;16.52;26.87
57248;BME280;55809;46.618;10.764;2023-04-25T12:22:22;92030.47;;;16.35;27.13
57248;BME280;55809;46.618;10.764;2023-04-25T12:24:49;92045.16;;;16.28;28.08
57248;BME280;55809;46.618;10.764;2023-04-25T12:27:20;92040.03;;;16.12;28.13
57248;BME280;55809;46.618;10.764;2023-04-25T12:29:54;92053.81;;;15.81;27.64
57248;BME280;55809;46.618;10.764;2023-04-25T12:32:28;92046.56;;;15.78;28.42
57248;BME280;55809;46.618;10.764;2023-04-25T12:35:10;92044.56;;;15.69;27.47
57248;BME280;55809;46.618;10.764;2023-04-25T12:37:43;92035.38;;;15.66;28.16
57248;BME280;55809;46.618;10.764;2023-04-25T12:40:11;92023.41;;;15.64;27.01
57248;BME280;55809;46.618;10.764;2023-04-25T12:43:25;92043.81;;;15.68;27.83
57248;BME280;55809;46.618;10.764;2023-04-25T12:45:56;92004.78;;;15.62;27.12
57248;BME280;55809;46.618;10.764;2023-04-25T12:48:40;92033.13;;;15.83;27.58
57248;BME280;55809;46.618;10.764;2023-04-25T12:51:06;92008.47;;;15.68;27.91
57248;BME280;55809;46.618;10.764;2023-04-25T12:53:34;92020.56;;;15.67;28.26
57248;BME280;55809;46.618;10.764;2023-04-25T12:56:03;92030.81;;;15.63;26.96
57248;BME280;55809;46.618;10.764;2023-04-25T12:58:41;92025.34;;;15.54;28.25
57248;BME280;55809;46.618;10.764;2023-04-25T13:01:25;92032.16;;;15.59;27.98
57248;BME280;55809;46.618;10.764;2023-04-25T13:04:01;92034.56;;;15.57;28.28
57248;BME280;55809;46.618;10.764;2023-04-25T13:06:42;92032.50;;;15.70;27.83
57248;BME280;55809;46.618;10.764;2023-04-25T13:09:12;92025.09;;;15.80;27.28
57248;BME280;55809;46.618;10.764;2023-04-25T13:11:56;92004.22;;;15.86;28.20
57248;BME280;55809;46.618;10.764;2023-04-25T13:14:39;92014.19;;;16.07;29.97